createdAt,value
2022-08-19T00:00:21.563Z,7.75
2022-08-19T00:01:30.449Z,7.57
2022-08-19T00:02:32.400Z,7.90
2022-08-19T00:03:34.698Z,7.43
2022-08-19T00:04:37.826Z,7.10
2022-08-19T00:05:39.674Z,8.10
2022-08-19T00:06:43.081Z,7.53
2022-08-19T00:07:44.829Z,7.40
2022-08-19T00:08:46.506Z,7.32
2022-08-19T00:09:48.175Z,8.25
2022-08-19T00:10:49.902Z,8.55
2022-08-19T00:11:52.201Z,7.95
2022-08-19T00:12:53.923Z,8.07
2022-08-19T00:13:56.410Z,7.68
2022-08-19T00:14:58.210Z,8.38
2022-08-19T00:16:01.627Z,8.00
2022-08-19T00:17:04.050Z,8.82
2022-08-19T00:18:05.687Z,8.05
2022-08-19T00:19:07.768Z,8.40
2022-08-19T00:20:11.791Z,8.45
2022-08-19T00:21:13.451Z,7.95
2022-08-19T00:22:15.686Z,9.13
2022-08-19T00:23:17.387Z,8.95
2022-08-19T00:24:19.973Z,8.77
2022-08-19T00:25:29.953Z,9.55
2022-08-19T00:26:32.335Z,8.90
2022-08-19T00:27:33.992Z,9.13
2022-08-19T00:28:36.846Z,9.30
2022-08-19T00:29:39.037Z,9.60
2022-08-19T00:30:41.578Z,9.82
2022-08-19T00:31:44.130Z,9.68
2022-08-19T00:32:45.752Z,9.52
2022-08-19T00:33:47.445Z,8.77
2022-08-19T00:34:49.062Z,9.60
2022-08-19T00:35:56.060Z,10.32
2022-08-19T00:36:58.318Z,9.10
2022-08-19T00:38:00.476Z,10.50
2022-08-19T00:39:02.190Z,9.45
2022-08-19T00:40:05.279Z,8.70
2022-08-19T00:41:07.124Z,10.25
2022-08-19T00:42:08.721Z,9.73
2022-08-19T00:43:11.440Z,9.40
2022-08-19T00:44:26.854Z,9.88
2022-08-19T00:45:31.681Z,8.95
2022-08-19T00:46:36.647Z,8.80
2022-08-19T00:47:38.275Z,8.97
2022-08-19T00:48:39.903Z,9.63
2022-08-19T00:49:47.032Z,9.68
2022-08-19T00:50:51.741Z,9.13
2022-08-19T00:51:56.913Z,9.02
2022-08-19T00:53:00.862Z,8.57
2022-08-19T00:54:02.455Z,9.30
2022-08-19T00:55:05.187Z,8.70
2022-08-19T00:56:07.393Z,9.35
2022-08-19T00:57:10.829Z,10.10
2022-08-19T00:58:14.286Z,9.00
2022-08-19T00:59:16.292Z,9.65
2022-08-19T01:00:38.463Z,9.85
2022-08-19T01:01:41.761Z,10.80
2022-08-19T01:02:43.778Z,10.77
2022-08-19T01:03:57.615Z,10.88
2022-08-19T01:05:01.506Z,10.05
2022-08-19T01:06:03.489Z,10.68
2022-08-19T01:07:05.173Z,10.65
2022-08-19T01:08:07.003Z,10.35
2022-08-19T01:09:08.861Z,10.57
2022-08-19T01:10:13.115Z,10.70
2022-08-19T01:11:14.722Z,10.77
2022-08-19T01:12:16.461Z,9.77
2022-08-19T01:13:20.052Z,11.43
2022-08-19T01:14:21.666Z,10.55
2022-08-19T01:15:25.831Z,10.55
2022-08-19T01:16:28.184Z,10.52
2022-08-19T01:17:29.814Z,9.73
2022-08-19T01:18:31.853Z,9.88
2022-08-19T01:19:44.066Z,10.00
2022-08-19T01:20:46.406Z,9.55
2022-08-19T01:22:00.933Z,10.00
2022-08-19T01:23:16.147Z,9.52
2022-08-19T01:24:17.795Z,9.73
2022-08-19T01:25:22.757Z,9.40
2022-08-19T01:26:27.075Z,10.35
2022-08-19T01:27:43.166Z,10.07
2022-08-19T01:28:46.277Z,9.13
2022-08-19T01:29:48.912Z,8.77
2022-08-19T01:30:51.103Z,9.60
2022-08-19T01:31:53.224Z,8.45
2022-08-19T01:32:55.181Z,8.68
2022-08-19T01:33:57.583Z,8.88
2022-08-19T01:34:59.476Z,8.93
2022-08-19T01:36:11.816Z,9.07
2022-08-19T01:37:13.586Z,8.90
2022-08-19T01:38:27.362Z,9.13
2022-08-19T01:39:29.442Z,8.35
2022-08-19T01:40:32.441Z,8.82
2022-08-19T01:41:34.313Z,8.70
2022-08-19T01:42:36.278Z,8.27
2022-08-19T01:43:38.107Z,8.57
2022-08-19T01:44:59.763Z,8.85
2022-08-19T01:46:01.679Z,8.02
2022-08-19T01:47:03.518Z,8.52
2022-08-19T01:48:05.239Z,8.10
2022-08-19T01:49:07.266Z,8.18
2022-08-19T01:50:09.786Z,8.65
2022-08-19T01:51:11.500Z,8.35
2022-08-19T01:52:13.111Z,8.17
2022-08-19T01:53:14.793Z,8.75
2022-08-19T01:54:23.299Z,9.00
2022-08-19T01:55:29.843Z,8.07
2022-08-19T01:56:31.460Z,9.30
2022-08-19T01:57:33.080Z,8.32
2022-08-19T01:58:50.497Z,9.00
2022-08-19T01:59:52.724Z,8.10
2022-08-19T02:00:54.363Z,9.02
2022-08-19T02:01:56.239Z,7.90
2022-08-19T02:02:57.934Z,7.90
2022-08-19T02:04:01.777Z,8.65
2022-08-19T02:05:04.128Z,9.10
2022-08-19T02:06:06.349Z,8.77
2022-08-19T02:07:09.159Z,8.57
2022-08-19T02:08:11.608Z,8.55
2022-08-19T02:09:13.350Z,8.68
2022-08-19T02:10:18.236Z,8.93
2022-08-19T02:11:27.424Z,8.18
2022-08-19T02:12:29.196Z,8.27
2022-08-19T02:13:30.858Z,8.37
2022-08-19T02:14:32.484Z,7.60
2022-08-19T02:15:34.174Z,7.57
2022-08-19T02:16:36.991Z,8.02
2022-08-19T02:17:38.808Z,7.95
2022-08-19T02:18:40.446Z,7.88
2022-08-19T02:19:42.173Z,8.02
2022-08-19T02:20:44.293Z,8.02
2022-08-19T02:21:45.901Z,7.18
2022-08-19T02:22:47.637Z,7.45
2022-08-19T02:23:49.642Z,6.70
2022-08-19T02:24:51.305Z,7.88
2022-08-19T02:25:52.929Z,7.53
2022-08-19T02:26:54.746Z,7.07
2022-08-19T02:27:56.393Z,7.10
2022-08-19T02:28:58.061Z,8.10
2022-08-19T02:29:59.931Z,7.60
2022-08-19T02:31:01.821Z,7.50
2022-08-19T02:32:03.676Z,8.15
2022-08-19T02:33:05.943Z,8.52
2022-08-19T02:34:07.563Z,7.80
2022-08-19T02:35:12.416Z,7.93
2022-08-19T02:36:15.975Z,7.72
2022-08-19T02:37:36.198Z,7.18
2022-08-19T02:38:38.264Z,7.65
2022-08-19T02:39:39.908Z,7.70
2022-08-19T02:40:41.606Z,7.20
2022-08-19T02:41:43.303Z,6.68
2022-08-19T02:42:46.277Z,6.32
2022-08-19T02:44:18.398Z,6.25
2022-08-19T02:45:10.348Z,7.33
2022-08-19T02:46:32.862Z,6.72
2022-08-19T02:47:34.934Z,6.88
2022-08-19T02:48:36.540Z,6.72
2022-08-19T02:49:38.160Z,6.68
2022-08-19T02:50:40.384Z,7.25
2022-08-19T02:51:53.671Z,6.82
2022-08-19T02:52:55.301Z,6.78
2022-08-19T02:53:57.638Z,6.90
2022-08-19T02:54:59.294Z,6.25
2022-08-19T02:56:01.018Z,6.93
2022-08-19T02:57:02.708Z,6.82
2022-08-19T02:58:04.338Z,6.57
2022-08-19T02:59:12.792Z,7.10
2022-08-19T03:00:14.951Z,6.55
2022-08-19T03:01:25.099Z,6.38
2022-08-19T03:02:26.769Z,6.50
2022-08-19T03:03:28.424Z,6.90
2022-08-19T03:04:30.684Z,7.03
2022-08-19T03:05:47.921Z,6.88
2022-08-19T03:06:54.059Z,6.30
2022-08-19T03:07:56.672Z,6.77
2022-08-19T03:08:58.378Z,6.22
2022-08-19T03:10:00.011Z,7.07
2022-08-19T03:11:01.639Z,6.70
2022-08-19T03:12:04.512Z,6.50
2022-08-19T03:13:06.112Z,6.72
2022-08-19T03:14:08.909Z,7.05
2022-08-19T03:15:10.685Z,7.43
2022-08-19T03:16:12.860Z,6.82
2022-08-19T03:17:14.569Z,6.67
2022-08-19T03:18:18.000Z,7.15
2022-08-19T03:19:20.339Z,6.60
2022-08-19T03:20:22.073Z,6.25
2022-08-19T03:21:25.715Z,6.28
2022-08-19T03:22:27.453Z,6.30
2022-08-19T03:23:29.117Z,6.28
2022-08-19T03:24:31.678Z,7.03
2022-08-19T03:25:38.516Z,6.53
2022-08-19T03:26:44.718Z,6.95
2022-08-19T03:27:49.947Z,6.97
2022-08-19T03:28:58.648Z,7.03
2022-08-19T03:30:00.670Z,6.28
2022-08-19T03:31:43.807Z,6.55
2022-08-19T03:32:33.044Z,6.57
2022-08-19T03:33:35.193Z,6.22
2022-08-19T03:34:38.519Z,7.07
2022-08-19T03:35:40.127Z,6.90
2022-08-19T03:36:42.046Z,6.65
2022-08-19T03:37:43.685Z,6.97
2022-08-19T03:38:47.410Z,7.30
2022-08-19T03:39:49.063Z,6.07
2022-08-19T03:40:50.726Z,6.53
2022-08-19T03:42:32.205Z,6.55
2022-08-19T03:43:18.795Z,5.88
2022-08-19T03:44:24.168Z,6.32
2022-08-19T03:45:25.777Z,6.18
2022-08-19T03:46:29.417Z,6.63
2022-08-19T03:47:31.534Z,6.60
2022-08-19T03:48:33.956Z,6.97
2022-08-19T03:49:36.867Z,6.87
2022-08-19T03:50:41.943Z,6.70
2022-08-19T03:51:43.774Z,6.30
2022-08-19T03:52:49.629Z,6.72
2022-08-19T03:53:51.446Z,6.88
2022-08-19T03:54:53.060Z,6.68
2022-08-19T03:55:55.265Z,7.28
2022-08-19T03:56:57.456Z,6.72
2022-08-19T03:57:59.563Z,7.20
2022-08-19T03:59:01.295Z,6.28
2022-08-19T04:00:12.886Z,6.90
2022-08-19T04:01:17.307Z,6.72
2022-08-19T04:02:18.960Z,6.57
2022-08-19T04:03:20.603Z,6.57
2022-08-19T04:04:22.705Z,7.03
2022-08-19T04:05:24.728Z,7.38
2022-08-19T04:06:31.317Z,6.97
2022-08-19T04:07:33.789Z,7.10
2022-08-19T04:08:35.419Z,6.45
2022-08-19T04:09:39.923Z,6.07
2022-08-19T04:10:43.063Z,6.23
2022-08-19T04:11:49.939Z,7.00
2022-08-19T04:12:51.677Z,7.22
2022-08-19T04:13:53.795Z,6.18
2022-08-19T04:14:55.462Z,6.43
2022-08-19T04:15:57.629Z,6.28
2022-08-19T04:17:04.539Z,6.38
2022-08-19T04:18:08.699Z,6.80
2022-08-19T04:19:10.557Z,6.78
2022-08-19T04:20:12.224Z,6.38
2022-08-19T04:21:19.011Z,6.23
2022-08-19T04:22:20.692Z,6.30
2022-08-19T04:23:22.291Z,6.47
2022-08-19T04:24:24.227Z,6.95
2022-08-19T04:25:25.874Z,7.15
2022-08-19T04:26:29.276Z,6.45
2022-08-19T04:27:32.241Z,6.80
2022-08-19T04:28:33.860Z,6.40
2022-08-19T04:29:35.637Z,6.60
2022-08-19T04:30:46.077Z,6.18
2022-08-19T04:31:47.775Z,6.30
2022-08-19T04:32:49.399Z,6.43
2022-08-19T04:33:51.237Z,6.35
2022-08-19T04:35:03.251Z,6.43
2022-08-19T04:36:21.634Z,6.30
2022-08-19T04:37:24.221Z,6.38
2022-08-19T04:38:26.076Z,6.13
2022-08-19T04:39:50.166Z,6.40
2022-08-19T04:41:10.982Z,5.80
2022-08-19T04:42:31.306Z,6.32
2022-08-19T04:43:33.071Z,5.87
2022-08-19T04:44:35.609Z,6.28
2022-08-19T04:45:43.777Z,5.97
2022-08-19T04:46:51.374Z,6.07
2022-08-19T04:47:58.995Z,6.93
2022-08-19T04:49:20.056Z,6.00
2022-08-19T04:50:23.671Z,6.10
2022-08-19T04:51:25.295Z,6.18
2022-08-19T04:52:26.904Z,5.93
2022-08-19T04:53:37.418Z,6.75
2022-08-19T04:54:40.154Z,7.30
2022-08-19T04:55:42.645Z,6.70
2022-08-19T04:56:44.855Z,6.43
2022-08-19T04:57:46.484Z,6.15
2022-08-19T04:58:49.633Z,5.95
2022-08-19T04:59:55.097Z,6.15
2022-08-19T05:00:56.761Z,5.65
2022-08-19T05:01:58.421Z,6.22
2022-08-19T05:03:00.095Z,5.97
2022-08-19T05:04:05.695Z,6.80
2022-08-19T05:05:07.882Z,6.37
2022-08-19T05:06:14.878Z,6.30
2022-08-19T05:07:16.501Z,5.68
2022-08-19T05:08:31.229Z,6.10
2022-08-19T05:09:55.746Z,6.13
2022-08-19T05:10:55.099Z,6.40
2022-08-19T05:11:56.721Z,5.90
2022-08-19T05:12:58.727Z,6.10
2022-08-19T05:14:00.415Z,6.32
2022-08-19T05:15:02.763Z,6.03
2022-08-19T05:16:04.632Z,6.47
2022-08-19T05:17:26.006Z,6.25
2022-08-19T05:18:45.937Z,5.97
2022-08-19T05:20:06.496Z,6.32
2022-08-19T05:21:28.070Z,5.72
2022-08-19T05:22:33.533Z,5.65
2022-08-19T05:23:35.192Z,5.55
2022-08-19T05:24:44.132Z,6.57
2022-08-19T05:25:53.083Z,6.63
2022-08-19T05:26:57.542Z,5.60
2022-08-19T05:27:59.432Z,6.30
2022-08-19T05:29:01.050Z,5.57
2022-08-19T05:30:02.823Z,5.60
2022-08-19T05:31:04.603Z,6.50
2022-08-19T05:32:09.834Z,7.25
2022-08-19T05:33:12.332Z,6.50
2022-08-19T05:34:18.271Z,5.78
2022-08-19T05:35:24.506Z,6.47
2022-08-19T05:36:29.553Z,5.75
2022-08-19T05:37:31.180Z,6.35
2022-08-19T05:38:32.815Z,6.43
2022-08-19T05:39:36.348Z,6.55
2022-08-19T05:40:39.127Z,6.70
2022-08-19T05:41:48.469Z,6.68
2022-08-19T05:42:55.059Z,6.20
2022-08-19T05:44:01.894Z,6.57
2022-08-19T05:45:03.854Z,6.50
2022-08-19T05:46:07.173Z,6.10
2022-08-19T05:47:09.514Z,6.43
2022-08-19T05:48:12.263Z,6.00
2022-08-19T05:49:13.979Z,6.37
2022-08-19T05:50:15.746Z,6.43
2022-08-19T05:51:17.817Z,5.75
2022-08-19T05:52:25.356Z,5.78
2022-08-19T05:53:27.708Z,6.13
2022-08-19T05:54:29.409Z,5.88
2022-08-19T05:55:31.067Z,5.88
2022-08-19T05:56:32.817Z,5.93
2022-08-19T05:57:34.442Z,6.20
2022-08-19T05:58:37.356Z,6.40
2022-08-19T05:59:39.270Z,5.90
2022-08-19T06:00:41.299Z,6.23
2022-08-19T06:01:46.951Z,6.05
2022-08-19T06:02:48.662Z,5.70
2022-08-19T06:03:50.385Z,6.22
2022-08-19T06:04:52.033Z,5.95
2022-08-19T06:05:54.529Z,6.50
2022-08-19T06:06:57.389Z,6.13
2022-08-19T06:07:59.766Z,5.78
2022-08-19T06:09:05.107Z,5.75
2022-08-19T06:10:08.442Z,5.57
2022-08-19T06:11:44.529Z,6.10
2022-08-19T06:12:46.312Z,6.10
2022-08-19T06:13:51.482Z,5.70
2022-08-19T06:15:00.504Z,6.10
2022-08-19T06:16:03.813Z,5.80
2022-08-19T06:17:07.286Z,6.32
2022-08-19T06:18:09.181Z,6.00
2022-08-19T06:19:13.774Z,6.35
2022-08-19T06:20:18.754Z,6.22
2022-08-19T06:21:21.986Z,5.73
2022-08-19T06:22:23.942Z,5.37
2022-08-19T06:23:26.713Z,6.20
2022-08-19T06:24:29.070Z,5.85
2022-08-19T06:25:31.538Z,5.60
2022-08-19T06:26:35.830Z,5.97
2022-08-19T06:27:42.001Z,5.75
2022-08-19T06:28:51.125Z,5.85
2022-08-19T06:29:52.795Z,5.80
2022-08-19T06:30:54.409Z,5.93
2022-08-19T06:31:57.460Z,6.07
2022-08-19T06:32:59.091Z,6.07
2022-08-19T06:34:04.933Z,5.97
2022-08-19T06:35:07.153Z,5.80
2022-08-19T06:36:09.580Z,6.28
2022-08-19T06:37:12.034Z,6.03
2022-08-19T06:38:13.670Z,6.40
2022-08-19T06:39:21.806Z,6.00
2022-08-19T06:40:24.020Z,6.57
2022-08-19T06:41:26.792Z,6.13
2022-08-19T06:42:28.462Z,6.03
2022-08-19T06:43:30.085Z,6.47
2022-08-19T06:44:37.293Z,5.75
2022-08-19T06:45:44.587Z,6.22
2022-08-19T06:46:54.827Z,5.80
2022-08-19T06:47:57.135Z,6.68
2022-08-19T06:48:59.127Z,6.38
2022-08-19T06:50:05.471Z,5.72
2022-08-19T06:51:08.732Z,6.32
2022-08-19T06:52:13.805Z,5.40
2022-08-19T06:53:15.766Z,5.77
2022-08-19T06:54:19.554Z,6.00
2022-08-19T06:55:21.552Z,7.05
2022-08-19T06:56:26.709Z,5.78
2022-08-19T06:57:28.375Z,5.80
2022-08-19T06:58:33.634Z,5.95
2022-08-19T06:59:35.298Z,6.00
2022-08-19T07:00:37.633Z,6.40
2022-08-19T07:01:41.034Z,5.93
2022-08-19T07:02:48.144Z,5.85
2022-08-19T07:03:58.453Z,5.83
2022-08-19T07:05:04.204Z,6.03
2022-08-19T07:06:26.541Z,5.93
2022-08-19T07:07:35.718Z,6.18
2022-08-19T07:09:45.054Z,6.25
2022-08-19T07:10:57.000Z,6.20
2022-08-19T07:11:59.315Z,6.00
2022-08-19T07:13:01.407Z,6.03
2022-08-19T07:14:03.053Z,5.70
2022-08-19T07:15:06.273Z,6.00
2022-08-19T07:16:08.459Z,5.50
2022-08-19T07:17:11.883Z,5.90
2022-08-19T07:18:13.584Z,6.28
2022-08-19T07:19:18.688Z,5.60
2022-08-19T07:20:21.086Z,6.22
2022-08-19T07:21:25.365Z,5.70
2022-08-19T07:22:31.650Z,6.80
2022-08-19T07:23:33.752Z,5.72
2022-08-19T07:24:35.685Z,5.55
2022-08-19T07:25:38.045Z,5.60
2022-08-19T07:26:42.217Z,5.77
2022-08-19T07:27:46.402Z,5.53
2022-08-19T07:28:52.820Z,5.50
2022-08-19T07:29:57.406Z,5.60
2022-08-19T07:30:59.414Z,6.32
2022-08-19T07:32:01.721Z,5.78
2022-08-19T07:33:03.751Z,6.00
2022-08-19T07:34:10.052Z,5.22
2022-08-19T07:35:11.801Z,5.38
2022-08-19T07:36:14.447Z,5.37
2022-08-19T07:37:16.069Z,6.63
2022-08-19T07:38:17.821Z,5.07
2022-08-19T07:39:21.830Z,5.85
2022-08-19T07:40:23.647Z,5.65
2022-08-19T07:41:26.021Z,5.70
2022-08-19T07:42:29.334Z,5.20
2022-08-19T07:43:34.894Z,4.90
2022-08-19T07:44:37.217Z,5.55
2022-08-19T07:45:38.980Z,5.07
2022-08-19T07:46:46.546Z,5.87
2022-08-19T07:47:51.366Z,5.53
2022-08-19T07:48:53.056Z,5.32
2022-08-19T07:49:54.834Z,5.50
2022-08-19T07:50:58.009Z,5.93
2022-08-19T07:52:02.414Z,5.63
2022-08-19T07:53:04.062Z,6.32
2022-08-19T07:54:05.805Z,5.90
2022-08-19T07:55:40.177Z,5.82
2022-08-19T07:56:30.761Z,5.95
2022-08-19T07:57:32.422Z,5.40
2022-08-19T07:58:35.778Z,5.00
2022-08-19T07:59:37.680Z,5.47
2022-08-19T08:00:39.741Z,5.60
2022-08-19T08:01:41.898Z,5.88
2022-08-19T08:02:43.706Z,5.68
2022-08-19T08:04:03.793Z,5.38
2022-08-19T08:05:27.389Z,6.10
2022-08-19T08:06:47.913Z,5.57
2022-08-19T08:08:07.977Z,5.30
2022-08-19T08:09:12.726Z,5.50
2022-08-19T08:10:20.533Z,6.00
2022-08-19T08:11:24.113Z,4.80
2022-08-19T08:12:34.559Z,5.90
2022-08-19T08:13:36.674Z,5.60
2022-08-19T08:14:47.588Z,5.90
2022-08-19T08:15:49.326Z,5.53
2022-08-19T08:16:53.912Z,5.57
2022-08-19T08:17:55.654Z,5.47
2022-08-19T08:18:57.884Z,5.50
2022-08-19T08:19:59.554Z,5.90
2022-08-19T08:21:01.367Z,4.80
2022-08-19T08:22:03.640Z,6.07
2022-08-19T08:23:23.364Z,5.47
2022-08-19T08:24:28.549Z,5.25
2022-08-19T08:25:32.490Z,5.38
2022-08-19T08:26:35.953Z,5.30
2022-08-19T08:27:40.628Z,5.07
2022-08-19T08:28:42.269Z,5.35
2022-08-19T08:29:50.125Z,5.10
2022-08-19T08:30:52.009Z,5.40
2022-08-19T08:32:00.036Z,5.17
2022-08-19T08:33:02.692Z,4.70
2022-08-19T08:34:04.523Z,5.57
2022-08-19T08:35:07.653Z,5.40
2022-08-19T08:36:09.658Z,5.82
2022-08-19T08:37:11.389Z,5.30
2022-08-19T08:38:13.270Z,5.55
2022-08-19T08:39:16.237Z,5.25
2022-08-19T08:40:30.595Z,5.00
2022-08-19T08:41:50.646Z,4.77
2022-08-19T08:44:05.741Z,5.50
2022-08-19T08:45:16.865Z,5.45
2022-08-19T08:46:30.386Z,5.28
2022-08-19T08:47:35.989Z,4.75
2022-08-19T08:48:43.061Z,5.57
2022-08-19T08:50:18.286Z,5.25
2022-08-19T08:51:34.987Z,5.15
2022-08-19T08:52:43.914Z,5.75
2022-08-19T08:53:48.243Z,6.47
2022-08-19T08:54:54.962Z,6.13
2022-08-19T08:55:57.475Z,5.53
2022-08-19T08:56:59.144Z,5.40
2022-08-19T08:58:04.294Z,5.47
2022-08-19T08:59:27.295Z,5.60
2022-08-19T09:00:39.736Z,5.60
2022-08-19T09:01:41.475Z,5.82
2022-08-19T09:02:44.091Z,6.20
2022-08-19T09:03:46.456Z,5.90
2022-08-19T09:04:48.163Z,5.67
2022-08-19T09:05:58.911Z,5.60
2022-08-19T09:07:36.038Z,5.63
2022-08-19T09:09:12.142Z,5.57
2022-08-19T09:10:27.247Z,5.30
2022-08-19T09:11:49.177Z,5.35
2022-08-19T09:13:12.186Z,5.82
2022-08-19T09:14:47.418Z,4.88
2022-08-19T09:15:47.571Z,4.70
2022-08-19T09:16:50.671Z,5.00
2022-08-19T09:17:52.393Z,5.07
2022-08-19T09:18:59.848Z,5.27
2022-08-19T09:20:09.755Z,4.78
2022-08-19T09:21:11.487Z,5.40
2022-08-19T09:22:13.231Z,5.60
2022-08-19T09:23:27.300Z,4.95
2022-08-19T09:24:31.209Z,4.63
2022-08-19T09:25:35.547Z,5.15
2022-08-19T09:26:52.378Z,5.30
2022-08-19T09:27:55.321Z,4.80
2022-08-19T09:29:06.823Z,4.60
2022-08-19T09:30:09.373Z,5.10
2022-08-19T09:31:14.864Z,5.10
2022-08-19T09:32:26.301Z,5.07
2022-08-19T09:33:28.598Z,5.00
2022-08-19T09:34:33.210Z,5.47
2022-08-19T09:35:53.023Z,5.03
2022-08-19T09:36:56.268Z,5.38
2022-08-19T09:37:59.444Z,5.30
2022-08-19T09:39:01.633Z,5.47
2022-08-19T09:40:04.884Z,5.13
2022-08-19T09:41:12.519Z,5.40
2022-08-19T09:42:16.495Z,5.55
2022-08-19T09:43:32.952Z,5.00
2022-08-19T09:44:35.962Z,5.40
2022-08-19T09:45:37.682Z,5.80
2022-08-19T09:46:39.338Z,4.95
2022-08-19T09:47:41.082Z,5.03
2022-08-19T09:48:43.329Z,5.18
2022-08-19T09:49:45.007Z,4.90
2022-08-19T09:50:51.957Z,4.87
2022-08-19T09:51:57.206Z,5.07
2022-08-19T09:52:59.093Z,4.53
2022-08-19T09:54:02.346Z,4.68
2022-08-19T09:55:08.261Z,5.65
2022-08-19T09:56:09.963Z,5.05
2022-08-19T09:57:11.589Z,5.38
2022-08-19T09:58:13.208Z,5.15
2022-08-19T09:59:14.878Z,5.20
2022-08-19T10:00:16.882Z,5.32
2022-08-19T10:01:24.012Z,5.13
2022-08-19T10:02:25.952Z,5.23
2022-08-19T10:03:31.253Z,5.53
2022-08-19T10:04:51.219Z,4.88
2022-08-19T10:05:55.204Z,4.88
2022-08-19T10:06:57.659Z,5.18
2022-08-19T10:08:02.453Z,4.80
2022-08-19T10:09:09.007Z,5.10
2022-08-19T10:10:11.276Z,4.95
2022-08-19T10:11:28.747Z,5.00
2022-08-19T10:12:38.280Z,4.77
2022-08-19T10:13:39.898Z,5.10
2022-08-19T10:14:42.454Z,5.05
2022-08-19T10:15:47.548Z,4.97
2022-08-19T10:16:50.461Z,5.22
2022-08-19T10:17:54.920Z,4.78
2022-08-19T10:18:59.049Z,4.90
2022-08-19T10:20:01.130Z,5.30
2022-08-19T10:21:11.515Z,4.80
2022-08-19T10:22:14.883Z,4.68
2022-08-19T10:23:16.881Z,4.47
2022-08-19T10:24:21.130Z,4.90
2022-08-19T10:25:22.806Z,4.40
2022-08-19T10:26:31.228Z,4.45
2022-08-19T10:27:32.861Z,5.15
2022-08-19T10:28:39.042Z,5.07
2022-08-19T10:29:46.444Z,4.95
2022-08-19T10:30:48.699Z,5.07
2022-08-19T10:32:00.803Z,4.85
2022-08-19T10:33:08.293Z,4.55
2022-08-19T10:34:17.575Z,5.10
2022-08-19T10:35:30.526Z,4.90
2022-08-19T10:36:56.067Z,5.30
2022-08-19T10:38:03.377Z,4.80
2022-08-19T10:39:09.740Z,5.05
2022-08-19T10:40:12.560Z,5.28
2022-08-19T10:41:16.454Z,5.18
2022-08-19T10:42:19.593Z,5.75
2022-08-19T10:43:21.202Z,5.63
2022-08-19T10:44:24.247Z,5.35
2022-08-19T10:45:28.181Z,4.88
2022-08-19T10:46:33.489Z,5.30
2022-08-19T10:47:35.113Z,5.10
2022-08-19T10:48:36.814Z,5.13
2022-08-19T10:49:58.813Z,5.43
2022-08-19T10:51:22.522Z,6.25
2022-08-19T10:52:38.879Z,5.45
2022-08-19T10:53:40.750Z,5.60
2022-08-19T10:55:05.167Z,5.65
2022-08-19T10:56:28.570Z,5.13
2022-08-19T10:57:52.343Z,5.13
2022-08-19T10:58:54.817Z,5.27
2022-08-19T10:59:56.998Z,5.55
2022-08-19T11:00:59.415Z,6.00
2022-08-19T11:02:01.723Z,6.25
2022-08-19T11:03:03.338Z,5.78
2022-08-19T11:04:05.401Z,5.68
2022-08-19T11:05:12.664Z,5.82
2022-08-19T11:06:16.373Z,6.53
2022-08-19T11:07:18.016Z,6.63
2022-08-19T11:08:23.901Z,7.13
2022-08-19T11:09:33.609Z,6.57
2022-08-19T11:10:36.128Z,6.75
2022-08-19T11:11:41.304Z,7.05
2022-08-19T11:12:42.988Z,7.57
2022-08-19T11:13:45.517Z,7.50
2022-08-19T11:14:47.146Z,7.82
2022-08-19T11:15:48.868Z,7.70
2022-08-19T11:16:53.155Z,7.30
2022-08-19T11:17:55.916Z,8.60
2022-08-19T11:18:59.398Z,7.70
2022-08-19T11:20:04.854Z,7.57
2022-08-19T11:21:18.272Z,8.80
2022-08-19T11:22:20.514Z,9.13
2022-08-19T11:23:22.137Z,9.50
2022-08-19T11:24:25.209Z,9.35
2022-08-19T11:25:26.937Z,9.57
2022-08-19T11:26:29.053Z,10.00
2022-08-19T11:27:30.677Z,10.38
2022-08-19T11:28:32.354Z,9.32
2022-08-19T11:29:35.421Z,9.33
2022-08-19T11:30:38.685Z,10.17
2022-08-19T11:31:43.499Z,12.68
2022-08-19T11:32:49.213Z,12.80
2022-08-19T11:33:54.742Z,10.82
2022-08-19T11:34:56.941Z,9.98
2022-08-19T11:36:00.293Z,10.68
2022-08-19T11:37:02.242Z,9.57
2022-08-19T11:38:07.182Z,9.43
2022-08-19T11:39:11.537Z,10.40
2022-08-19T11:40:13.241Z,20.80
2022-08-19T11:41:15.673Z,12.63
2022-08-19T11:42:35.614Z,12.25
2022-08-19T11:43:37.841Z,12.02
2022-08-19T11:44:39.500Z,12.38
2022-08-19T11:45:41.482Z,11.15
2022-08-19T11:46:47.151Z,13.20
2022-08-19T11:47:49.305Z,16.23
2022-08-19T11:48:51.639Z,12.68
2022-08-19T11:49:54.179Z,11.13
2022-08-19T11:50:58.582Z,9.85
2022-08-19T11:52:00.252Z,10.70
2022-08-19T11:53:01.854Z,13.32
2022-08-19T11:54:03.546Z,9.45
2022-08-19T11:55:06.341Z,6.72
2022-08-19T11:56:09.128Z,7.40
2022-08-19T11:57:10.805Z,7.35
2022-08-19T11:58:19.158Z,8.52
2022-08-19T11:59:21.024Z,8.70
2022-08-19T12:00:22.644Z,9.27
2022-08-19T12:01:25.185Z,7.07
2022-08-19T12:02:26.967Z,8.07
2022-08-19T12:03:29.068Z,7.07
2022-08-19T12:04:30.779Z,6.53
2022-08-19T12:05:32.422Z,6.45
2022-08-19T12:06:39.247Z,5.38
2022-08-19T12:07:42.564Z,4.25
2022-08-19T12:08:44.584Z,4.93
2022-08-19T12:09:46.201Z,6.47
2022-08-19T12:10:50.300Z,5.32
2022-08-19T12:11:52.022Z,4.90
2022-08-19T12:12:54.675Z,5.23
2022-08-19T12:14:00.593Z,4.57
2022-08-19T12:15:03.150Z,6.40
2022-08-19T12:16:16.039Z,5.72
2022-08-19T12:17:17.672Z,6.53
2022-08-19T12:18:19.373Z,4.55
2022-08-19T12:19:22.345Z,5.55
2022-08-19T12:20:24.869Z,4.10
2022-08-19T12:21:29.396Z,6.80
2022-08-19T12:22:31.013Z,6.40
2022-08-19T12:23:32.645Z,4.17
2022-08-19T12:24:35.044Z,5.55
2022-08-19T12:25:37.533Z,4.18
2022-08-19T12:26:53.079Z,5.15
2022-08-19T12:27:57.437Z,4.05
2022-08-19T12:29:00.590Z,4.03
2022-08-19T12:30:03.675Z,4.20
2022-08-19T12:31:05.591Z,3.70
2022-08-19T12:32:07.240Z,3.65
2022-08-19T12:33:14.961Z,4.47
2022-08-19T12:34:16.806Z,4.53
2022-08-19T12:35:18.759Z,3.85
2022-08-19T12:36:20.755Z,4.10
2022-08-19T12:37:22.386Z,3.55
2022-08-19T12:38:25.331Z,3.72
2022-08-19T12:39:27.145Z,4.20
2022-08-19T12:40:28.807Z,4.75
2022-08-19T12:41:30.440Z,4.28
2022-08-19T12:42:32.082Z,4.63
2022-08-19T12:43:35.979Z,4.53
2022-08-19T12:44:38.600Z,4.17
2022-08-19T12:45:43.702Z,4.20
2022-08-19T12:46:45.661Z,4.05
2022-08-19T12:47:47.906Z,4.90
2022-08-19T12:48:54.071Z,4.85
2022-08-19T12:49:57.586Z,4.45
2022-08-19T12:50:59.219Z,4.93
2022-08-19T12:52:05.012Z,4.35
2022-08-19T12:53:06.632Z,4.30
2022-08-19T12:54:08.329Z,4.53
2022-08-19T12:55:10.177Z,4.47
2022-08-19T12:56:12.582Z,3.60
2022-08-19T12:57:14.684Z,4.72
2022-08-19T12:58:16.297Z,4.30
2022-08-19T12:59:19.101Z,4.53
2022-08-19T13:00:22.147Z,4.32
2022-08-19T13:01:23.862Z,5.65
2022-08-19T13:02:25.509Z,4.85
2022-08-19T13:03:30.336Z,3.92
2022-08-19T13:04:31.951Z,4.28
2022-08-19T13:05:34.516Z,4.47
2022-08-19T13:06:36.579Z,4.22
2022-08-19T13:07:39.692Z,4.95
2022-08-19T13:08:41.347Z,4.95
2022-08-19T13:09:45.782Z,4.60
2022-08-19T13:10:47.798Z,4.30
2022-08-19T13:11:49.489Z,4.65
2022-08-19T13:12:51.867Z,4.45
2022-08-19T13:13:54.660Z,4.05
2022-08-19T13:14:56.520Z,4.13
2022-08-19T13:16:03.153Z,4.53
2022-08-19T13:17:04.894Z,4.30
2022-08-19T13:18:07.006Z,4.65
2022-08-19T13:19:08.731Z,5.00
2022-08-19T13:20:11.425Z,4.20
2022-08-19T13:21:14.227Z,4.43
2022-08-19T13:22:15.875Z,4.72
2022-08-19T13:23:17.481Z,4.45
2022-08-19T13:24:19.260Z,3.72
2022-08-19T13:25:21.894Z,3.92
2022-08-19T13:26:23.713Z,4.53
2022-08-19T13:27:25.351Z,4.40
2022-08-19T13:28:29.322Z,4.32
2022-08-19T13:29:49.683Z,5.10
2022-08-19T13:31:09.594Z,4.20
2022-08-19T13:32:29.560Z,4.10
2022-08-19T13:33:31.590Z,3.90
2022-08-19T13:34:35.003Z,3.70
2022-08-19T13:35:36.695Z,4.13
2022-08-19T13:36:38.587Z,3.83
2022-08-19T13:37:42.796Z,3.87
2022-08-19T13:38:45.906Z,3.95
2022-08-19T13:39:48.386Z,3.45
2022-08-19T13:40:51.369Z,3.85
2022-08-19T13:41:53.009Z,3.50
2022-08-19T13:42:55.394Z,3.60
2022-08-19T13:43:57.054Z,3.92
2022-08-19T13:44:59.524Z,3.78
2022-08-19T13:46:01.564Z,3.75
2022-08-19T13:47:08.075Z,3.57
2022-08-19T13:48:09.800Z,3.47
2022-08-19T13:49:12.729Z,3.70
2022-08-19T13:50:18.643Z,3.83
2022-08-19T13:51:20.327Z,3.53
2022-08-19T13:52:22.006Z,3.53
2022-08-19T13:53:24.157Z,3.63
2022-08-19T13:54:25.878Z,3.70
2022-08-19T13:55:27.999Z,3.38
2022-08-19T13:56:29.706Z,3.88
2022-08-19T13:57:31.579Z,3.60
2022-08-19T13:58:33.272Z,3.47
2022-08-19T13:59:34.877Z,3.95
2022-08-19T14:00:38.728Z,3.88
2022-08-19T14:01:40.583Z,4.07
2022-08-19T14:02:42.221Z,3.13
2022-08-19T14:03:45.643Z,3.20
2022-08-19T14:04:49.173Z,3.70
2022-08-19T14:05:50.796Z,3.75
2022-08-19T14:06:52.482Z,3.13
2022-08-19T14:07:54.270Z,3.27
2022-08-19T14:08:56.061Z,3.33
2022-08-19T14:09:57.669Z,3.08
2022-08-19T14:10:59.467Z,3.90
2022-08-19T14:12:08.252Z,2.95
2022-08-19T14:13:10.051Z,2.78
2022-08-19T14:14:16.243Z,3.10
2022-08-19T14:15:18.155Z,2.83
2022-08-19T14:16:19.834Z,2.72
2022-08-19T14:17:21.549Z,2.40
2022-08-19T14:18:23.276Z,2.43
2022-08-19T14:19:30.246Z,2.77
2022-08-19T14:20:32.071Z,3.47
2022-08-19T14:21:37.473Z,2.38
2022-08-19T14:22:41.587Z,2.53